sensor_id;sensor_type;location;lat;lon;timestamp;temperature;humidity
13223;DHT22;6676;45.192;5.722;2022-10-26T00:00:26;15.60;99.90
13223;DHT22;6676;45.192;5.722;2022-10-26T00:03:18;15.60;99.90
13223;DHT22;6676;45.192;5.722;2022-10-26T00:06:11;15.60;99.90
13223;DHT22;6676;45.192;5.722;2022-10-26T00:09:03;15.60;99.90
13223;DHT22;6676;45.192;5.722;2022-10-26T00:11:54;15.70;99.90
13223;DHT22;6676;45.192;5.722;2022-10-26T00:14:46;15.60;99.90
13223;DHT22;6676;45.192;5.722;2022-10-26T00:17:38;15.70;99.90
13223;DHT22;6676;45.192;5.722;2022-10-26T00:20:29;15.70;99.90
13223;DHT22;6676;45.192;5.722;2022-10-26T00:23:22;15.50;99.90
13223;DHT22;6676;45.192;5.722;2022-10-26T00:26:13;15.40;99.90
13223;DHT22;6676;45.192;5.722;2022-10-26T00:29:05;15.40;99.90
13223;DHT22;6676;45.192;5.722;2022-10-26T00:31:58;15.40;99.90
13223;DHT22;6676;45.192;5.722;2022-10-26T00:34:49;15.50;99.90
13223;DHT22;6676;45.192;5.722;2022-10-26T00:37:40;15.40;99.90
13223;DHT22;6676;45.192;5.722;2022-10-26T00:40:32;15.40;99.90
13223;DHT22;6676;45.192;5.722;2022-10-26T00:43:37;15.50;99.90
13223;DHT22;6676;45.192;5.722;2022-10-26T00:46:31;15.60;99.90
13223;DHT22;6676;45.192;5.722;2022-10-26T00:49:23;15.50;99.90
13223;DHT22;6676;45.192;5.722;2022-10-26T00:52:15;15.50;99.90
13223;DHT22;6676;45.192;5.722;2022-10-26T00:55:08;15.40;99.90
13223;DHT22;6676;45.192;5.722;2022-10-26T00:58:01;15.40;99.90
13223;DHT22;6676;45.192;5.722;2022-10-26T01:00:57;15.40;99.90
13223;DHT22;6676;45.192;5.722;2022-10-26T01:03:54;15.50;99.90
13223;DHT22;6676;45.192;5.722;2022-10-26T01:06:53;15.60;99.90
13223;DHT22;6676;45.192;5.722;2022-10-26T01:09:46;15.60;99.90
13223;DHT22;6676;45.192;5.722;2022-10-26T01:12:41;15.60;99.90
13223;DHT22;6676;45.192;5.722;2022-10-26T01:18:26;15.60;99.90
13223;DHT22;6676;45.192;5.722;2022-10-26T01:21:38;15.60;99.90
13223;DHT22;6676;45.192;5.722;2022-10-26T01:24:48;15.60;99.90
13223;DHT22;6676;45.192;5.722;2022-10-26T01:27:39;15.80;99.90
13223;DHT22;6676;45.192;5.722;2022-10-26T01:30:34;16.00;99.90
13223;DHT22;6676;45.192;5.722;2022-10-26T01:33:32;16.10;99.90
13223;DHT22;6676;45.192;5.722;2022-10-26T01:36:28;16.50;99.90
13223;DHT22;6676;45.192;5.722;2022-10-26T01:39:21;17.10;99.90
13223;DHT22;6676;45.192;5.722;2022-10-26T01:42:15;17.60;99.90
13223;DHT22;6676;45.192;5.722;2022-10-26T01:45:10;18.10;99.90
13223;DHT22;6676;45.192;5.722;2022-10-26T01:48:04;18.10;99.90
13223;DHT22;6676;45.192;5.722;2022-10-26T01:50:57;17.40;99.90
13223;DHT22;6676;45.192;5.722;2022-10-26T01:53:49;17.10;99.90
13223;DHT22;6676;45.192;5.722;2022-10-26T01:56:42;16.90;99.90
13223;DHT22;6676;45.192;5.722;2022-10-26T01:59:55;16.80;99.90
13223;DHT22;6676;45.192;5.722;2022-10-26T02:03:00;16.70;99.90
13223;DHT22;6676;45.192;5.722;2022-10-26T02:05:59;16.70;99.90
13223;DHT22;6676;45.192;5.722;2022-10-26T02:08:57;16.70;99.90
13223;DHT22;6676;45.192;5.722;2022-10-26T02:11:51;16.70;99.90
13223;DHT22;6676;45.192;5.722;2022-10-26T02:14:46;16.70;99.90
13223;DHT22;6676;45.192;5.722;2022-10-26T02:17:44;16.70;99.90
13223;DHT22;6676;45.192;5.722;2022-10-26T02:20:37;16.60;99.90
13223;DHT22;6676;45.192;5.722;2022-10-26T02:23:32;16.50;99.90
13223;DHT22;6676;45.192;5.722;2022-10-26T02:26:26;16.40;99.90
13223;DHT22;6676;45.192;5.722;2022-10-26T02:29:19;16.30;99.90
13223;DHT22;6676;45.192;5.722;2022-10-26T02:32:12;16.20;99.90
13223;DHT22;6676;45.192;5.722;2022-10-26T02:35:05;16.20;99.90
13223;DHT22;6676;45.192;5.722;2022-10-26T02:37:58;16.20;99.90
13223;DHT22;6676;45.192;5.722;2022-10-26T02:40:50;16.10;99.90
13223;DHT22;6676;45.192;5.722;2022-10-26T02:43:44;16.10;99.90
13223;DHT22;6676;45.192;5.722;2022-10-26T02:46:37;16.00;99.90
13223;DHT22;6676;45.192;5.722;2022-10-26T02:49:29;16.00;99.90
13223;DHT22;6676;45.192;5.722;2022-10-26T02:52:23;15.90;99.90
13223;DHT22;6676;45.192;5.722;2022-10-26T02:55:18;15.80;99.90
13223;DHT22;6676;45.192;5.722;2022-10-26T02:58:12;15.70;99.90
13223;DHT22;6676;45.192;5.722;2022-10-26T03:01:05;15.80;99.90
13223;DHT22;6676;45.192;5.722;2022-10-26T03:03:58;15.70;99.90
13223;DHT22;6676;45.192;5.722;2022-10-26T03:06:53;15.70;99.90
13223;DHT22;6676;45.192;5.722;2022-10-26T03:09:45;15.70;99.90
13223;DHT22;6676;45.192;5.722;2022-10-26T03:12:36;15.60;99.90
13223;DHT22;6676;45.192;5.722;2022-10-26T03:15:27;15.60;99.90
13223;DHT22;6676;45.192;5.722;2022-10-26T03:18:19;15.70;99.90
13223;DHT22;6676;45.192;5.722;2022-10-26T03:21:10;15.70;99.90
13223;DHT22;6676;45.192;5.722;2022-10-26T03:24:02;15.80;99.90
13223;DHT22;6676;45.192;5.722;2022-10-26T03:26:53;15.70;99.90
13223;DHT22;6676;45.192;5.722;2022-10-26T03:29:46;15.70;99.90
13223;DHT22;6676;45.192;5.722;2022-10-26T03:32:37;15.70;99.90
13223;DHT22;6676;45.192;5.722;2022-10-26T03:35:29;15.70;99.90
13223;DHT22;6676;45.192;5.722;2022-10-26T03:38:20;15.70;99.90
13223;DHT22;6676;45.192;5.722;2022-10-26T03:41:12;15.70;99.90
13223;DHT22;6676;45.192;5.722;2022-10-26T03:44:03;15.70;99.90
13223;DHT22;6676;45.192;5.722;2022-10-26T03:46:56;15.70;99.90
13223;DHT22;6676;45.192;5.722;2022-10-26T03:49:47;15.70;99.90
13223;DHT22;6676;45.192;5.722;2022-10-26T03:52:38;15.80;99.90
13223;DHT22;6676;45.192;5.722;2022-10-26T03:55:30;15.80;99.90
13223;DHT22;6676;45.192;5.722;2022-10-26T03:58:21;15.70;99.90
13223;DHT22;6676;45.192;5.722;2022-10-26T04:01:13;15.80;99.90
13223;DHT22;6676;45.192;5.722;2022-10-26T04:04:04;15.70;99.90
13223;DHT22;6676;45.192;5.722;2022-10-26T04:06:56;15.70;99.90
13223;DHT22;6676;45.192;5.722;2022-10-26T04:09:47;15.70;99.90
13223;DHT22;6676;45.192;5.722;2022-10-26T04:12:39;15.60;99.90
13223;DHT22;6676;45.192;5.722;2022-10-26T04:15:30;15.60;99.90
13223;DHT22;6676;45.192;5.722;2022-10-26T04:18:21;15.60;99.90
13223;DHT22;6676;45.192;5.722;2022-10-26T04:21:13;15.60;99.90
13223;DHT22;6676;45.192;5.722;2022-10-26T04:24:05;15.60;99.90
13223;DHT22;6676;45.192;5.722;2022-10-26T04:26:56;15.50;99.90
13223;DHT22;6676;45.192;5.722;2022-10-26T04:29:48;15.50;99.90
13223;DHT22;6676;45.192;5.722;2022-10-26T04:32:40;15.50;99.90
13223;DHT22;6676;45.192;5.722;2022-10-26T04:35:31;15.50;99.90
13223;DHT22;6676;45.192;5.722;2022-10-26T04:38:23;15.50;99.90
13223;DHT22;6676;45.192;5.722;2022-10-26T04:41:14;15.40;99.90
13223;DHT22;6676;45.192;5.722;2022-10-26T04:44:06;15.30;99.90
13223;DHT22;6676;45.192;5.722;2022-10-26T04:46:57;15.30;99.90
13223;DHT22;6676;45.192;5.722;2022-10-26T04:49:49;15.20;99.90
13223;DHT22;6676;45.192;5.722;2022-10-26T04:52:41;15.20;99.90
13223;DHT22;6676;45.192;5.722;2022-10-26T04:55:33;15.30;99.90
13223;DHT22;6676;45.192;5.722;2022-10-26T04:58:25;15.20;99.90
13223;DHT22;6676;45.192;5.722;2022-10-26T05:01:16;15.20;99.90
13223;DHT22;6676;45.192;5.722;2022-10-26T05:04:08;15.20;99.90
13223;DHT22;6676;45.192;5.722;2022-10-26T05:07:00;15.20;99.90
13223;DHT22;6676;45.192;5.722;2022-10-26T05:09:52;15.20;99.90
13223;DHT22;6676;45.192;5.722;2022-10-26T05:12:49;15.20;99.90
13223;DHT22;6676;45.192;5.722;2022-10-26T05:15:41;15.10;99.90
13223;DHT22;6676;45.192;5.722;2022-10-26T05:18:32;15.00;99.90
13223;DHT22;6676;45.192;5.722;2022-10-26T05:21:25;15.00;99.90
13223;DHT22;6676;45.192;5.722;2022-10-26T05:24:16;15.00;99.90
13223;DHT22;6676;45.192;5.722;2022-10-26T05:27:08;15.00;99.90
13223;DHT22;6676;45.192;5.722;2022-10-26T05:29:59;15.00;99.90
13223;DHT22;6676;45.192;5.722;2022-10-26T05:32:54;15.10;99.90
13223;DHT22;6676;45.192;5.722;2022-10-26T05:35:46;15.10;99.90
13223;DHT22;6676;45.192;5.722;2022-10-26T05:38:37;15.10;99.90
13223;DHT22;6676;45.192;5.722;2022-10-26T05:41:28;15.10;99.90
13223;DHT22;6676;45.192;5.722;2022-10-26T05:44:20;15.00;99.90
13223;DHT22;6676;45.192;5.722;2022-10-26T05:47:11;14.90;99.90
13223;DHT22;6676;45.192;5.722;2022-10-26T05:50:04;14.90;99.90
13223;DHT22;6676;45.192;5.722;2022-10-26T05:52:55;14.80;99.90
13223;DHT22;6676;45.192;5.722;2022-10-26T05:55:49;14.80;99.90
13223;DHT22;6676;45.192;5.722;2022-10-26T05:58:41;14.80;99.90
13223;DHT22;6676;45.192;5.722;2022-10-26T06:01:37;14.80;99.90
13223;DHT22;6676;45.192;5.722;2022-10-26T06:04:34;14.80;99.90
13223;DHT22;6676;45.192;5.722;2022-10-26T06:07:26;14.90;99.90
13223;DHT22;6676;45.192;5.722;2022-10-26T06:10:19;14.90;99.90
13223;DHT22;6676;45.192;5.722;2022-10-26T06:13:11;14.90;99.90
13223;DHT22;6676;45.192;5.722;2022-10-26T06:19:23;14.80;99.90
13223;DHT22;6676;45.192;5.722;2022-10-26T06:22:26;14.80;99.90
13223;DHT22;6676;45.192;5.722;2022-10-26T06:25:25;14.80;99.90
13223;DHT22;6676;45.192;5.722;2022-10-26T06:28:18;14.80;99.90
13223;DHT22;6676;45.192;5.722;2022-10-26T06:31:09;14.70;99.90
13223;DHT22;6676;45.192;5.722;2022-10-26T06:34:01;14.70;99.90
13223;DHT22;6676;45.192;5.722;2022-10-26T06:36:53;14.70;99.90
13223;DHT22;6676;45.192;5.722;2022-10-26T06:39:48;14.60;99.90
13223;DHT22;6676;45.192;5.722;2022-10-26T06:42:42;14.60;99.90
13223;DHT22;6676;45.192;5.722;2022-10-26T06:45:34;14.60;99.90
13223;DHT22;6676;45.192;5.722;2022-10-26T06:48:28;14.60;99.90
13223;DHT22;6676;45.192;5.722;2022-10-26T06:51:20;14.60;99.90
13223;DHT22;6676;45.192;5.722;2022-10-26T06:54:17;14.60;99.90
13223;DHT22;6676;45.192;5.722;2022-10-26T06:57:10;14.60;99.90
13223;DHT22;6676;45.192;5.722;2022-10-26T07:00:06;14.60;99.90
13223;DHT22;6676;45.192;5.722;2022-10-26T07:02:57;14.60;99.90
13223;DHT22;6676;45.192;5.722;2022-10-26T07:05:49;14.70;99.90
13223;DHT22;6676;45.192;5.722;2022-10-26T07:08:41;14.70;99.90
13223;DHT22;6676;45.192;5.722;2022-10-26T07:11:32;14.70;99.90
13223;DHT22;6676;45.192;5.722;2022-10-26T07:14:24;14.70;99.90
13223;DHT22;6676;45.192;5.722;2022-10-26T07:17:15;14.80;99.90
13223;DHT22;6676;45.192;5.722;2022-10-26T07:20:08;14.80;99.90
13223;DHT22;6676;45.192;5.722;2022-10-26T07:22:59;14.90;99.90
13223;DHT22;6676;45.192;5.722;2022-10-26T07:25:50;14.90;99.90
13223;DHT22;6676;45.192;5.722;2022-10-26T07:28:42;15.00;99.90
13223;DHT22;6676;45.192;5.722;2022-10-26T07:31:33;15.00;99.90
13223;DHT22;6676;45.192;5.722;2022-10-26T07:34:25;15.00;99.90
13223;DHT22;6676;45.192;5.722;2022-10-26T07:37:16;15.10;99.90
13223;DHT22;6676;45.192;5.722;2022-10-26T07:40:09;15.10;99.90
13223;DHT22;6676;45.192;5.722;2022-10-26T07:43:01;15.20;99.90
13223;DHT22;6676;45.192;5.722;2022-10-26T07:45:52;15.20;99.90
13223;DHT22;6676;45.192;5.722;2022-10-26T07:48:43;15.30;99.90
13223;DHT22;6676;45.192;5.722;2022-10-26T07:51:35;15.30;99.90
13223;DHT22;6676;45.192;5.722;2022-10-26T07:54:26;15.30;99.90
13223;DHT22;6676;45.192;5.722;2022-10-26T07:57:18;15.40;99.90
13223;DHT22;6676;45.192;5.722;2022-10-26T08:00:12;15.50;99.90
13223;DHT22;6676;45.192;5.722;2022-10-26T08:03:04;15.50;99.90
13223;DHT22;6676;45.192;5.722;2022-10-26T08:05:56;15.60;99.90
13223;DHT22;6676;45.192;5.722;2022-10-26T08:08:48;15.60;99.90
13223;DHT22;6676;45.192;5.722;2022-10-26T08:11:40;15.60;99.90
13223;DHT22;6676;45.192;5.722;2022-10-26T08:14:32;15.70;99.90
13223;DHT22;6676;45.192;5.722;2022-10-26T08:17:23;15.80;99.90
13223;DHT22;6676;45.192;5.722;2022-10-26T08:20:15;15.80;99.90
13223;DHT22;6676;45.192;5.722;2022-10-26T08:23:06;15.90;99.90
13223;DHT22;6676;45.192;5.722;2022-10-26T08:25:59;15.90;99.90
13223;DHT22;6676;45.192;5.722;2022-10-26T08:28:51;16.00;99.90
13223;DHT22;6676;45.192;5.722;2022-10-26T08:31:42;16.00;99.90
13223;DHT22;6676;45.192;5.722;2022-10-26T08:34:34;16.10;99.90
13223;DHT22;6676;45.192;5.722;2022-10-26T08:37:27;16.20;99.90
13223;DHT22;6676;45.192;5.722;2022-10-26T08:40:19;16.20;99.90
13223;DHT22;6676;45.192;5.722;2022-10-26T08:43:16;16.30;99.90
13223;DHT22;6676;45.192;5.722;2022-10-26T08:46:11;16.40;99.90
13223;DHT22;6676;45.192;5.722;2022-10-26T08:49:08;16.40;99.90
13223;DHT22;6676;45.192;5.722;2022-10-26T08:52:02;16.50;99.90
13223;DHT22;6676;45.192;5.722;2022-10-26T08:54:56;16.60;99.90
13223;DHT22;6676;45.192;5.722;2022-10-26T08:57:49;16.70;99.90
13223;DHT22;6676;45.192;5.722;2022-10-26T09:00:42;16.80;99.90
13223;DHT22;6676;45.192;5.722;2022-10-26T09:03:34;16.80;99.90
13223;DHT22;6676;45.192;5.722;2022-10-26T09:06:29;16.90;99.90
13223;DHT22;6676;45.192;5.722;2022-10-26T09:09:25;17.00;99.90
13223;DHT22;6676;45.192;5.722;2022-10-26T09:12:18;17.10;99.90
13223;DHT22;6676;45.192;5.722;2022-10-26T09:15:16;17.10;99.90
13223;DHT22;6676;45.192;5.722;2022-10-26T09:18:14;17.20;99.90
13223;DHT22;6676;45.192;5.722;2022-10-26T09:21:18;17.30;99.90
13223;DHT22;6676;45.192;5.722;2022-10-26T09:24:14;17.30;99.90
13223;DHT22;6676;45.192;5.722;2022-10-26T09:27:11;17.30;99.90
13223;DHT22;6676;45.192;5.722;2022-10-26T09:30:11;17.40;99.90
13223;DHT22;6676;45.192;5.722;2022-10-26T09:33:01;17.50;99.90
13223;DHT22;6676;45.192;5.722;2022-10-26T09:35:56;17.50;99.90
13223;DHT22;6676;45.192;5.722;2022-10-26T09:38:50;17.60;99.90
13223;DHT22;6676;45.192;5.722;2022-10-26T09:41:45;17.70;99.90
13223;DHT22;6676;45.192;5.722;2022-10-26T09:44:39;17.80;99.90
13223;DHT22;6676;45.192;5.722;2022-10-26T09:47:34;17.90;99.90
13223;DHT22;6676;45.192;5.722;2022-10-26T09:50:29;17.90;99.90
13223;DHT22;6676;45.192;5.722;2022-10-26T09:53:21;18.00;99.90
13223;DHT22;6676;45.192;5.722;2022-10-26T09:59:00;18.20;99.90
13223;DHT22;6676;45.192;5.722;2022-10-26T10:01:53;18.30;99.90
13223;DHT22;6676;45.192;5.722;2022-10-26T10:04:46;18.40;99.90
13223;DHT22;6676;45.192;5.722;2022-10-26T10:07:38;18.50;99.90
13223;DHT22;6676;45.192;5.722;2022-10-26T10:10:29;18.60;99.90
13223;DHT22;6676;45.192;5.722;2022-10-26T10:13:23;18.70;99.90
13223;DHT22;6676;45.192;5.722;2022-10-26T10:19:22;18.80;99.90
13223;DHT22;6676;45.192;5.722;2022-10-26T10:22:22;18.90;99.90
13223;DHT22;6676;45.192;5.722;2022-10-26T10:25:20;18.90;99.90
13223;DHT22;6676;45.192;5.722;2022-10-26T10:28:18;18.90;99.90
13223;DHT22;6676;45.192;5.722;2022-10-26T10:31:20;19.00;99.90
13223;DHT22;6676;45.192;5.722;2022-10-26T10:34:16;19.10;99.90
13223;DHT22;6676;45.192;5.722;2022-10-26T10:37:20;19.10;99.90
13223;DHT22;6676;45.192;5.722;2022-10-26T10:40:16;19.20;99.90
13223;DHT22;6676;45.192;5.722;2022-10-26T10:43:11;19.30;99.90
13223;DHT22;6676;45.192;5.722;2022-10-26T10:46:04;19.30;99.90
13223;DHT22;6676;45.192;5.722;2022-10-26T10:49:01;19.40;99.90
13223;DHT22;6676;45.192;5.722;2022-10-26T10:51:53;19.50;99.90
13223;DHT22;6676;45.192;5.722;2022-10-26T10:54:47;19.60;99.90
13223;DHT22;6676;45.192;5.722;2022-10-26T10:57:46;19.60;99.90
13223;DHT22;6676;45.192;5.722;2022-10-26T11:00:38;19.70;99.90
13223;DHT22;6676;45.192;5.722;2022-10-26T11:06:51;19.70;99.90
13223;DHT22;6676;45.192;5.722;2022-10-26T11:09:46;19.80;99.90
13223;DHT22;6676;45.192;5.722;2022-10-26T11:12:42;19.90;99.90
13223;DHT22;6676;45.192;5.722;2022-10-26T11:15:35;19.90;99.90
13223;DHT22;6676;45.192;5.722;2022-10-26T11:18:30;20.00;99.90
13223;DHT22;6676;45.192;5.722;2022-10-26T11:21:26;20.10;99.90
13223;DHT22;6676;45.192;5.722;2022-10-26T11:24:21;20.20;99.90
13223;DHT22;6676;45.192;5.722;2022-10-26T11:27:14;20.20;99.90
13223;DHT22;6676;45.192;5.722;2022-10-26T11:30:12;20.30;99.90
13223;DHT22;6676;45.192;5.722;2022-10-26T11:33:06;20.40;99.90
13223;DHT22;6676;45.192;5.722;2022-10-26T11:35:59;20.50;99.90
13223;DHT22;6676;45.192;5.722;2022-10-26T11:38:53;20.50;99.90
13223;DHT22;6676;45.192;5.722;2022-10-26T11:41:50;20.60;99.90
13223;DHT22;6676;45.192;5.722;2022-10-26T11:44:43;20.60;99.90
13223;DHT22;6676;45.192;5.722;2022-10-26T11:47:40;20.60;99.90
13223;DHT22;6676;45.192;5.722;2022-10-26T11:50:35;20.60;99.90
13223;DHT22;6676;45.192;5.722;2022-10-26T11:56:13;20.70;99.90
13223;DHT22;6676;45.192;5.722;2022-10-26T11:59:07;20.70;99.90
13223;DHT22;6676;45.192;5.722;2022-10-26T12:02:01;20.80;99.90
13223;DHT22;6676;45.192;5.722;2022-10-26T12:04:58;20.90;99.90
13223;DHT22;6676;45.192;5.722;2022-10-26T12:07:50;20.90;99.90
13223;DHT22;6676;45.192;5.722;2022-10-26T12:10:47;21.00;99.90
13223;DHT22;6676;45.192;5.722;2022-10-26T12:13:43;21.00;99.90
13223;DHT22;6676;45.192;5.722;2022-10-26T12:16:41;21.10;99.90
13223;DHT22;6676;45.192;5.722;2022-10-26T12:19:37;21.10;99.90
13223;DHT22;6676;45.192;5.722;2022-10-26T12:22:30;21.10;99.90
13223;DHT22;6676;45.192;5.722;2022-10-26T12:25:22;21.10;99.90
13223;DHT22;6676;45.192;5.722;2022-10-26T12:28:39;21.20;99.90
13223;DHT22;6676;45.192;5.722;2022-10-26T12:31:49;21.30;99.90
13223;DHT22;6676;45.192;5.722;2022-10-26T12:35:01;21.40;99.90
13223;DHT22;6676;45.192;5.722;2022-10-26T12:37:53;21.50;99.90
13223;DHT22;6676;45.192;5.722;2022-10-26T12:40:45;21.60;99.90
13223;DHT22;6676;45.192;5.722;2022-10-26T12:43:38;21.60;99.90
13223;DHT22;6676;45.192;5.722;2022-10-26T12:46:39;21.60;99.90
13223;DHT22;6676;45.192;5.722;2022-10-26T12:49:59;21.60;99.90
13223;DHT22;6676;45.192;5.722;2022-10-26T12:52:53;21.60;99.90
13223;DHT22;6676;45.192;5.722;2022-10-26T12:56:04;21.80;99.90
13223;DHT22;6676;45.192;5.722;2022-10-26T12:59:17;21.80;99.90
13223;DHT22;6676;45.192;5.722;2022-10-26T13:05:32;21.80;99.90
13223;DHT22;6676;45.192;5.722;2022-10-26T13:08:25;21.90;99.90
13223;DHT22;6676;45.192;5.722;2022-10-26T13:11:19;22.00;99.90
13223;DHT22;6676;45.192;5.722;2022-10-26T13:14:19;22.10;99.90
13223;DHT22;6676;45.192;5.722;2022-10-26T13:17:22;22.10;99.90
13223;DHT22;6676;45.192;5.722;2022-10-26T13:20:16;22.20;99.90
13223;DHT22;6676;45.192;5.722;2022-10-26T13:23:18;22.20;99.90
13223;DHT22;6676;45.192;5.722;2022-10-26T13:26:12;22.20;99.90
13223;DHT22;6676;45.192;5.722;2022-10-26T13:29:04;22.30;99.90
13223;DHT22;6676;45.192;5.722;2022-10-26T13:31:56;22.40;99.90
13223;DHT22;6676;45.192;5.722;2022-10-26T13:34:48;22.40;99.90
13223;DHT22;6676;45.192;5.722;2022-10-26T13:40:22;22.40;99.90
13223;DHT22;6676;45.192;5.722;2022-10-26T13:43:19;22.40;99.90
13223;DHT22;6676;45.192;5.722;2022-10-26T13:46:26;22.50;99.90
13223;DHT22;6676;45.192;5.722;2022-10-26T13:49:20;22.50;99.90
13223;DHT22;6676;45.192;5.722;2022-10-26T13:52:15;22.60;99.90
13223;DHT22;6676;45.192;5.722;2022-10-26T13:55:13;22.60;99.90
13223;DHT22;6676;45.192;5.722;2022-10-26T13:58:16;22.60;99.90
13223;DHT22;6676;45.192;5.722;2022-10-26T14:01:14;22.60;99.90
13223;DHT22;6676;45.192;5.722;2022-10-26T14:04:16;22.70;99.90
13223;DHT22;6676;45.192;5.722;2022-10-26T14:07:15;22.70;99.90
13223;DHT22;6676;45.192;5.722;2022-10-26T14:10:24;22.80;99.90
13223;DHT22;6676;45.192;5.722;2022-10-26T14:13:18;22.80;99.90
13223;DHT22;6676;45.192;5.722;2022-10-26T14:16:11;22.80;99.90
13223;DHT22;6676;45.192;5.722;2022-10-26T14:19:06;22.80;99.90
13223;DHT22;6676;45.192;5.722;2022-10-26T14:21:59;22.80;99.90
13223;DHT22;6676;45.192;5.722;2022-10-26T14:24:53;22.90;99.90
13223;DHT22;6676;45.192;5.722;2022-10-26T14:27:44;23.00;99.90
13223;DHT22;6676;45.192;5.722;2022-10-26T14:30:36;23.00;99.90
13223;DHT22;6676;45.192;5.722;2022-10-26T14:33:29;23.00;99.90
13223;DHT22;6676;45.192;5.722;2022-10-26T14:36:22;23.00;99.90
13223;DHT22;6676;45.192;5.722;2022-10-26T14:39:19;22.80;99.90
13223;DHT22;6676;45.192;5.722;2022-10-26T14:42:14;22.80;99.90
13223;DHT22;6676;45.192;5.722;2022-10-26T14:45:18;22.80;99.90
13223;DHT22;6676;45.192;5.722;2022-10-26T14:48:21;22.80;99.90
13223;DHT22;6676;45.192;5.722;2022-10-26T14:51:17;22.80;99.90
13223;DHT22;6676;45.192;5.722;2022-10-26T14:54:19;22.80;99.90
13223;DHT22;6676;45.192;5.722;2022-10-26T14:57:31;22.70;99.90
13223;DHT22;6676;45.192;5.722;2022-10-26T15:00:25;22.70;99.90
13223;DHT22;6676;45.192;5.722;2022-10-26T15:03:17;22.70;99.90
13223;DHT22;6676;45.192;5.722;2022-10-26T15:06:31;22.70;99.90
13223;DHT22;6676;45.192;5.722;2022-10-26T15:09:44;22.60;99.90
13223;DHT22;6676;45.192;5.722;2022-10-26T15:12:36;22.60;99.90
13223;DHT22;6676;45.192;5.722;2022-10-26T15:15:28;22.50;99.90
13223;DHT22;6676;45.192;5.722;2022-10-26T15:18:22;22.30;99.90
13223;DHT22;6676;45.192;5.722;2022-10-26T15:21:25;22.30;99.90
13223;DHT22;6676;45.192;5.722;2022-10-26T15:27:13;22.10;99.90
13223;DHT22;6676;45.192;5.722;2022-10-26T15:30:19;22.00;99.90
13223;DHT22;6676;45.192;5.722;2022-10-26T15:33:18;21.80;99.90
13223;DHT22;6676;45.192;5.722;2022-10-26T15:38:54;21.60;99.90
13223;DHT22;6676;45.192;5.722;2022-10-26T15:41:46;21.40;99.90
13223;DHT22;6676;45.192;5.722;2022-10-26T15:44:39;21.30;99.90
13223;DHT22;6676;45.192;5.722;2022-10-26T15:47:32;21.30;99.90
13223;DHT22;6676;45.192;5.722;2022-10-26T15:50:25;21.30;99.90
13223;DHT22;6676;45.192;5.722;2022-10-26T15:53:20;21.10;99.90
13223;DHT22;6676;45.192;5.722;2022-10-26T15:56:13;21.00;99.90
13223;DHT22;6676;45.192;5.722;2022-10-26T15:59:10;20.90;99.90
13223;DHT22;6676;45.192;5.722;2022-10-26T16:02:11;20.80;99.90
13223;DHT22;6676;45.192;5.722;2022-10-26T16:05:03;20.80;99.90
13223;DHT22;6676;45.192;5.722;2022-10-26T16:07:55;20.70;99.90
13223;DHT22;6676;45.192;5.722;2022-10-26T16:10:47;20.70;99.90
13223;DHT22;6676;45.192;5.722;2022-10-26T16:13:40;20.60;99.90
13223;DHT22;6676;45.192;5.722;2022-10-26T16:16:31;20.40;99.90
13223;DHT22;6676;45.192;5.722;2022-10-26T16:19:23;20.20;99.90
13223;DHT22;6676;45.192;5.722;2022-10-26T16:22:16;20.10;99.90
13223;DHT22;6676;45.192;5.722;2022-10-26T16:25:08;20.20;99.90
13223;DHT22;6676;45.192;5.722;2022-10-26T16:27:59;20.20;99.90
13223;DHT22;6676;45.192;5.722;2022-10-26T16:30:51;20.10;99.90
13223;DHT22;6676;45.192;5.722;2022-10-26T16:33:44;20.10;99.90
13223;DHT22;6676;45.192;5.722;2022-10-26T16:36:35;20.10;99.90
13223;DHT22;6676;45.192;5.722;2022-10-26T16:39:27;20.10;99.90
13223;DHT22;6676;45.192;5.722;2022-10-26T16:42:19;20.00;99.90
13223;DHT22;6676;45.192;5.722;2022-10-26T16:45:11;20.00;99.90
13223;DHT22;6676;45.192;5.722;2022-10-26T16:48:04;20.00;99.90
13223;DHT22;6676;45.192;5.722;2022-10-26T16:50:57;19.90;99.90
13223;DHT22;6676;45.192;5.722;2022-10-26T16:53:51;19.80;99.90
13223;DHT22;6676;45.192;5.722;2022-10-26T16:56:43;19.80;99.90
13223;DHT22;6676;45.192;5.722;2022-10-26T16:59:34;19.80;99.90
13223;DHT22;6676;45.192;5.722;2022-10-26T17:02:25;19.70;99.90
13223;DHT22;6676;45.192;5.722;2022-10-26T17:05:17;19.70;99.90
13223;DHT22;6676;45.192;5.722;2022-10-26T17:08:09;19.70;99.90
13223;DHT22;6676;45.192;5.722;2022-10-26T17:11:03;19.60;99.90
13223;DHT22;6676;45.192;5.722;2022-10-26T17:13:55;19.60;99.90
13223;DHT22;6676;45.192;5.722;2022-10-26T17:16:47;19.60;99.90
13223;DHT22;6676;45.192;5.722;2022-10-26T17:19:38;19.60;99.90
13223;DHT22;6676;45.192;5.722;2022-10-26T17:22:30;19.50;99.90
13223;DHT22;6676;45.192;5.722;2022-10-26T17:25:21;19.50;99.90
13223;DHT22;6676;45.192;5.722;2022-10-26T17:28:13;19.60;99.90
13223;DHT22;6676;45.192;5.722;2022-10-26T17:31:06;19.60;99.90
13223;DHT22;6676;45.192;5.722;2022-10-26T17:33:58;19.60;99.90
13223;DHT22;6676;45.192;5.722;2022-10-26T17:36:50;19.60;99.90
13223;DHT22;6676;45.192;5.722;2022-10-26T17:39:42;19.50;99.90
13223;DHT22;6676;45.192;5.722;2022-10-26T17:42:33;19.50;99.90
13223;DHT22;6676;45.192;5.722;2022-10-26T17:45:25;19.50;99.90
13223;DHT22;6676;45.192;5.722;2022-10-26T17:48:16;19.50;99.90
13223;DHT22;6676;45.192;5.722;2022-10-26T17:51:10;19.50;99.90
13223;DHT22;6676;45.192;5.722;2022-10-26T17:54:02;19.50;99.90
13223;DHT22;6676;45.192;5.722;2022-10-26T17:56:53;19.40;99.90
13223;DHT22;6676;45.192;5.722;2022-10-26T17:59:45;19.40;99.90
13223;DHT22;6676;45.192;5.722;2022-10-26T18:02:37;19.40;99.90
13223;DHT22;6676;45.192;5.722;2022-10-26T18:05:29;19.30;99.90
13223;DHT22;6676;45.192;5.722;2022-10-26T18:08:21;19.30;99.90
13223;DHT22;6676;45.192;5.722;2022-10-26T18:11:14;19.30;99.90
13223;DHT22;6676;45.192;5.722;2022-10-26T18:14:09;19.20;99.90
13223;DHT22;6676;45.192;5.722;2022-10-26T18:17:01;19.20;99.90
13223;DHT22;6676;45.192;5.722;2022-10-26T18:19:52;19.20;99.90
13223;DHT22;6676;45.192;5.722;2022-10-26T18:22:44;19.20;99.90
13223;DHT22;6676;45.192;5.722;2022-10-26T18:25:35;19.20;99.90
13223;DHT22;6676;45.192;5.722;2022-10-26T18:28:27;19.20;99.90
13223;DHT22;6676;45.192;5.722;2022-10-26T18:31:19;19.20;99.90
13223;DHT22;6676;45.192;5.722;2022-10-26T18:34:11;19.20;99.90
13223;DHT22;6676;45.192;5.722;2022-10-26T18:37:02;19.20;99.90
13223;DHT22;6676;45.192;5.722;2022-10-26T18:40:01;19.30;99.90
13223;DHT22;6676;45.192;5.722;2022-10-26T18:42:53;19.20;99.90
13223;DHT22;6676;45.192;5.722;2022-10-26T18:45:44;19.20;99.90
13223;DHT22;6676;45.192;5.722;2022-10-26T18:48:36;19.20;99.90
13223;DHT22;6676;45.192;5.722;2022-10-26T18:51:29;19.10;99.90
13223;DHT22;6676;45.192;5.722;2022-10-26T18:54:20;19.10;99.90
13223;DHT22;6676;45.192;5.722;2022-10-26T18:57:14;19.20;99.90
13223;DHT22;6676;45.192;5.722;2022-10-26T19:00:07;19.20;99.90
13223;DHT22;6676;45.192;5.722;2022-10-26T19:02:59;19.10;99.90
13223;DHT22;6676;45.192;5.722;2022-10-26T19:08:29;19.10;99.90